Terminal Aerodrome Forecast
Issued by NWS Albany, NY

Home | Current Version | Previous Version | Text Only | Print | Product List | Glossary On
Versions: 1 2 3 4 5 6 7 8 9 10 11 12 13 14 15 16 17 18 19 20 21 22 23 24 25 26 27
995
FTUS41 KALY 200543
TAFPOU
TAF
KPOU 200543Z 2006/2106 18004KT 1/2SM -DZ FG OVC005 WS020/24030KT
     FM201300 20008KT 1SM BR SCT008 OVC030
     FM201700 20007KT P6SM SCT030 BKN050 BKN200
     FM210000 21007KT P6SM SCT020 SCT050=

USA.gov is the U.S. government's official web portal to all federal, state and local government web resources and services.